Time;durP1;ratioP1;P1;durP2;ratioP2;P2;SDS_P1;SDS_P2;PMS_P1;PMS_P2;Temp;Humidity;BMP_temperature;BMP_pressure;BME280_temperature;BME280_humidity;BME280_pressure;Samples;Min_cycle;Max_cycle;Signal;HPM_P1;HPM_P2
2021/10/09 00:01:41;;;;;;;35.90;24.35;;;;;;;5.61;82.23;101536.41;10379897;28;20080;-73
2021/10/09 00:06:42;;;;;;;34.55;24.00;;;;;;;5.62;81.52;101542.50;10362319;28;20092;-73
2021/10/09 00:11:44;;;;;;;30.05;24.10;;;;;;;5.56;81.45;101543.31;10379754;28;20488;-73
2021/10/09 00:16:46;;;;;;;27.70;23.20;;;;;;;5.28;82.60;101534.25;10379029;28;20049;-74
2021/10/09 00:21:47;;;;;;;37.30;24.10;;;;;;;5.44;81.88;101530.97;10379344;28;20056;-73
2021/10/09 00:26:49;;;;;;;38.55;24.58;;;;;;;5.41;81.68;101530.97;10379519;28;20042;-73
2021/10/09 00:31:51;;;;;;;33.13;24.02;;;;;;;5.34;81.50;101533.47;10379585;28;20049;-74
2021/10/09 00:36:53;;;;;;;36.75;25.25;;;;;;;5.23;81.76;101533.31;10378878;28;20030;-73
2021/10/09 00:41:55;;;;;;;33.78;25.13;;;;;;;5.02;82.39;101528.66;10360992;28;20042;-73
2021/10/09 00:47:01;;;;;;;34.92;25.13;;;;;;;4.87;83.09;101529.31;10361651;28;20049;-73
2021/10/09 00:52:05;;;;;;;33.20;25.80;;;;;;;4.95;83.24;101524.22;10377976;28;20042;-73
2021/10/09 00:57:08;;;;;;;30.85;24.48;;;;;;;5.07;81.93;101527.00;10352593;28;20293;-73
2021/10/09 01:02:10;;;;;;;42.40;26.45;;;;;;;4.72;83.13;101529.94;10377288;28;20049;-73
2021/10/09 01:07:12;;;;;;;36.17;25.33;;;;;;;4.69;83.13;101527.31;10359456;28;20060;-73
2021/10/09 01:12:14;;;;;;;37.30;24.75;;;;;;;4.96;81.27;101523.38;10344109;28;20052;-74
2021/10/09 01:17:16;;;;;;;34.40;25.23;;;;;;;5.00;81.09;101525.16;10378787;28;20038;-73
2021/10/09 01:22:19;;;;;;;36.33;26.20;;;;;;;4.72;82.42;101527.34;10361094;28;20045;-73
2021/10/09 01:27:21;;;;;;;31.80;25.90;;;;;;;4.49;83.13;101524.34;10343825;28;20469;-74
2021/10/09 01:32:23;;;;;;;33.95;26.38;;;;;;;4.41;83.51;101518.13;10360025;28;20038;-73
2021/10/09 01:37:36;;;;;;;41.97;26.67;;;;;;;4.25;83.84;101527.44;10359327;28;20046;-73
2021/10/09 01:42:38;;;;;;;30.75;24.55;;;;;;;4.18;84.43;101522.06;10358231;28;20045;-73
2021/10/09 01:47:40;;;;;;;33.22;24.70;;;;;;;4.23;84.16;101512.63;10359211;28;20056;-74
2021/10/09 01:52:43;;;;;;;32.70;24.75;;;;;;;4.27;83.75;101517.03;10359239;28;20042;-73
2021/10/09 01:57:47;;;;;;;28.45;23.20;;;;;;;4.24;83.16;101515.25;10376574;28;20036;-73
2021/10/09 02:02:50;;;;;;;39.20;24.63;;;;;;;4.54;81.81;101517.50;10342465;28;20466;-74
2021/10/09 02:07:51;;;;;;;27.23;23.00;;;;;;;4.53;80.80;101507.94;10359272;28;20577;-73
2021/10/09 02:12:54;;;;;;;29.83;23.85;;;;;;;4.34;82.21;101503.28;10384022;28;20444;-73
2021/10/09 02:28:22;;;;;;;36.45;24.17;;;;;;;4.19;82.16;101514.28;10383640;28;20077;-73
2021/10/09 02:33:25;;;;;;;28.95;23.83;;;;;;;4.18;81.88;101515.13;10365254;28;20050;-73
2021/10/09 02:38:26;;;;;;;29.80;23.73;;;;;;;3.78;83.50;101518.72;10383202;28;20038;-73
2021/10/09 02:43:29;;;;;;;44.65;24.65;;;;;;;3.68;83.70;101514.19;10382575;28;20064;-73
2021/10/09 02:48:31;;;;;;;32.50;25.02;;;;;;;3.50;84.70;101518.16;10382159;28;20049;-73
2021/10/09 02:53:33;;;;;;;28.23;24.42;;;;;;;3.89;83.23;101506.78;10382095;28;20514;-73
2021/10/09 02:58:35;;;;;;;29.27;24.05;;;;;;;3.90;82.99;101518.09;10364096;28;20455;-73
2021/10/09 03:03:37;;;;;;;38.90;24.58;;;;;;;4.05;82.19;101521.84;10363902;28;20076;-73
2021/10/09 03:08:39;;;;;;;47.10;26.30;;;;;;;3.88;82.82;101515.44;10363567;28;20045;-73
2021/10/09 03:13:41;;;;;;;38.13;23.88;;;;;;;3.66;83.31;101515.88;10364245;28;20136;-73
2021/10/09 03:18:45;;;;;;;38.15;26.00;;;;;;;3.79;83.27;101525.66;10363086;28;20071;-75
2021/10/09 03:23:47;;;;;;;42.50;26.80;;;;;;;3.67;83.50;101515.00;10380842;28;20125;-75
2021/10/09 03:28:50;;;;;;;38.80;26.10;;;;;;;3.57;83.94;101513.97;10363620;28;20058;-75
2021/10/09 03:33:52;;;;;;;35.22;25.15;;;;;;;3.44;84.71;101518.03;10346877;28;20133;-76
2021/10/09 03:38:54;;;;;;;29.23;24.77;;;;;;;3.42;83.85;101508.47;10363290;28;20408;-75
2021/10/09 03:43:56;;;;;;;32.15;25.15;;;;;;;3.27;84.10;101522.84;10362277;28;20049;-75
2021/10/09 03:49:21;;;;;;;35.90;23.98;;;;;;;3.50;nan;101525.09;10381154;28;20036;-75
2021/10/09 03:54:22;;;;;;;33.92;24.13;;;;;;;3.44;82.74;101525.81;10380690;28;20412;-76
2021/10/09 03:59:24;;;;;;;39.17;23.90;;;;;;;3.51;81.66;101526.84;10362508;28;20116;-75
2021/10/09 04:04:29;;;;;;;26.65;23.75;;;;;;;3.46;82.15;101520.69;10361980;28;20046;-75
2021/10/09 04:09:31;;;;;;;52.67;26.00;;;;;;;3.54;82.40;101532.09;10378982;28;20033;-75
2021/10/09 04:14:33;;;;;;;42.50;24.33;;;;;;;3.38;82.70;101530.03;10345314;28;20523;-75
2021/10/09 04:19:35;;;;;;;31.25;24.75;;;;;;;3.29;83.42;101528.97;10360667;28;20460;-75
2021/10/09 04:24:37;;;;;;;27.20;23.27;;;;;;;3.38;83.16;101530.03;10361192;28;20049;-75
2021/10/09 04:29:39;;;;;;;35.90;24.83;;;;;;;3.26;83.59;101522.84;10361016;28;20045;-75
2021/10/09 04:34:44;;;;;;;30.15;25.23;;;;;;;3.31;83.94;101526.41;10360067;28;20061;-75
2021/10/09 04:39:46;;;;;;;37.78;24.20;;;;;;;3.32;83.65;101529.88;10361971;28;20052;-77
2021/10/09 04:44:48;;;;;;;29.17;23.80;;;;;;;2.86;84.83;101521.06;10359971;28;20065;-75
2021/10/09 04:49:50;;;;;;;38.25;25.10;;;;;;;3.06;85.49;101532.81;10345622;28;20058;-75
2021/10/09 04:54:52;;;;;;;34.45;24.60;;;;;;;2.93;84.83;101530.75;10360064;28;20041;-76
2021/10/09 04:59:54;;;;;;;27.38;23.15;;;;;;;3.02;84.49;101533.56;10344193;28;20077;-75
2021/10/09 05:04:59;;;;;;;29.98;24.95;;;;;;;3.14;83.74;101539.03;10359624;28;20041;-76
2021/10/09 05:10:03;;;;;;;28.10;23.33;;;;;;;3.03;84.81;101551.78;10359598;28;20056;-74
2021/10/09 05:15:07;;;;;;;28.15;24.38;;;;;;;3.07;84.09;101557.06;10359365;28;20076;-75
2021/10/09 05:20:10;;;;;;;26.27;23.25;;;;;;;3.00;84.04;101556.03;10359262;28;20218;-75
2021/10/09 05:25:12;;;;;;;27.83;22.85;;;;;;;3.05;84.06;101551.81;10376602;28;20049;-74
2021/10/09 05:30:14;;;;;;;31.17;22.98;;;;;;;2.76;84.52;101544.22;10376952;28;20049;-75
2021/10/09 05:35:18;;;;;;;27.52;21.45;;;;;;;2.84;84.28;101540.94;10376962;28;20423;-75
2021/10/09 05:40:20;;;;;;;28.50;23.15;;;;;;;2.71;84.93;101531.97;10360100;28;20046;-76
2021/10/09 05:45:22;;;;;;;25.33;21.17;;;;;;;2.81;84.93;101533.06;10364039;28;20046;-76
2021/10/09 05:50:29;;;;;;;28.20;21.80;;;;;;;2.83;85.96;101552.13;10367252;28;20424;-75
2021/10/09 05:55:36;;;;;;;29.67;24.23;;;;;;;3.17;85.97;101559.00;10367306;28;20060;-75
2021/10/09 07:04:20;;;;;;;33.33;26.50;;;;;;;4.18;86.99;101632.25;10364291;28;20114;-76
2021/10/09 07:09:22;;;;;;;31.67;25.23;;;;;;;4.29;86.51;101628.16;10364007;28;20046;-76
2021/10/09 07:14:29;;;;;;;37.42;26.92;;;;;;;4.33;87.23;101631.66;10364024;28;20041;-76
2021/10/09 07:19:31;;;;;;;31.25;25.15;;;;;;;4.29;87.60;101643.78;10381417;28;20459;-75
2021/10/09 07:24:35;;;;;;;34.72;25.63;;;;;;;4.16;88.27;101643.47;10364127;28;20045;-75
2021/10/09 07:29:37;;;;;;;30.98;24.63;;;;;;;4.32;87.20;101642.94;10363886;28;20100;-76
2021/10/09 07:34:38;;;;;;;37.35;27.48;;;;;;;4.43;87.08;101656.19;10363370;28;20042;-75
2021/10/09 07:39:40;;;;;;;51.72;31.02;;;;;;;4.21;88.87;101653.16;10380860;28;20042;-74
2021/10/09 07:44:42;;;;;;;37.30;27.65;;;;;;;4.61;86.62;101650.44;10363163;28;20401;-76
2021/10/09 07:49:45;;;;;;;41.05;27.30;;;;;;;4.98;85.93;101647.63;10380377;28;20052;-77
2021/10/09 07:54:47;;;;;;;42.38;30.80;;;;;;;4.81;86.07;101656.88;10363162;28;20048;-74
2021/10/09 07:59:48;;;;;;;38.80;28.70;;;;;;;5.03;86.41;101653.78;10379299;28;20496;-76
2021/10/09 08:04:51;;;;;;;41.33;29.08;;;;;;;5.66;83.10;101646.03;10380095;28;20057;-77
2021/10/09 08:09:53;;;;;;;35.58;27.27;;;;;;;5.84;80.07;101646.28;10380294;28;20046;-75
2021/10/09 08:14:54;;;;;;;44.13;28.17;;;;;;;5.68;80.93;101654.78;10379716;28;20058;-76
2021/10/09 08:19:56;;;;;;;41.53;28.27;;;;;;;5.92;80.11;101649.91;10380069;28;20104;-76
2021/10/09 08:25:26;;;;;;;32.42;27.40;;;;;;;6.00;80.56;101647.41;10378636;28;20559;-75
2021/10/09 08:41:01;;;;;;;33.33;24.90;;;;;;;6.24;79.46;101644.22;10378221;28;20054;-75
2021/10/09 08:46:03;;;;;;;25.52;22.85;;;;;;;6.59;77.26;101644.59;10361355;28;20049;-75
2021/10/09 08:51:04;;;;;;;25.77;23.08;;;;;;;6.96;75.28;101640.63;10361600;28;20507;-75
2021/10/09 08:56:07;;;;;;;26.67;22.05;;;;;;;7.01;75.12;101640.66;10378990;28;20049;-77
2021/10/09 09:01:26;;;;;;;21.40;19.25;;;;;;;7.43;71.47;101639.22;10379515;28;20084;-76
2021/10/09 09:39:05;;;;;;;21.83;15.98;;;;;;;9.48;62.24;101609.19;10377598;28;20074;-75
2021/10/09 09:44:14;;;;;;;19.35;15.20;;;;;;;9.97;61.55;101619.53;10359800;28;20046;-76
2021/10/09 09:49:15;;;;;;;14.43;13.00;;;;;;;10.43;59.73;101616.69;10360881;28;20049;-76
2021/10/09 09:54:17;;;;;;;14.60;13.40;;;;;;;11.31;57.31;101601.09;10374568;28;20057;-75
2021/10/09 09:59:23;;;;;;;14.43;11.57;;;;;;;11.57;55.50;101609.59;10371742;28;20045;-76
2021/10/09 10:04:25;;;;;;;15.23;12.43;;;;;;;11.84;54.49;101607.59;10377763;28;20411;-76
2021/10/09 10:09:28;;;;;;;14.77;11.40;;;;;;;12.08;52.29;101604.63;10378032;28;20092;-76
2021/10/09 10:14:31;;;;;;;16.52;10.65;;;;;;;12.58;52.18;101608.34;10377853;28;20117;-76
2021/10/09 10:19:49;;;;;;;13.10;11.95;;;;;;;13.43;50.22;101602.56;10343062;28;20092;-77
2021/10/09 10:24:51;;;;;;;;;;;;;;;13.74;48.47;101594.91;10360336;28;20057;-76
2021/10/09 10:30:14;;;;;;;11.73;9.30;;;;;;;14.14;47.59;101592.31;10379303;28;20374;-75
2021/10/09 10:35:34;;;;;;;17.55;10.18;;;;;;;14.21;47.32;101589.50;10384060;28;20057;-77
2021/10/09 10:40:54;;;;;;;9.85;8.23;;;;;;;14.69;49.11;101581.38;10366093;28;20049;-76
2021/10/09 10:45:56;;;;;;;10.15;8.32;;;;;;;14.77;44.89;101582.94;10384112;28;20062;-76
2021/10/09 10:51:03;;;;;;;10.45;7.32;;;;;;;14.98;44.75;101573.59;10383963;28;20046;-76
2021/10/09 10:56:08;;;;;;;11.82;7.50;;;;;;;15.63;41.87;101570.97;10383445;28;20038;-76
2021/10/09 11:01:21;;;;;;;7.50;5.95;;;;;;;15.48;41.91;101565.22;10382894;28;20045;-76
2021/10/09 11:06:25;;;;;;;6.40;5.53;;;;;;;15.75;40.74;101555.63;10383282;28;20042;-76
2021/10/09 11:11:43;;;;;;;7.07;5.97;;;;;;;15.86;40.67;101558.88;10366060;28;20045;-76
2021/10/09 11:16:45;;;;;;;6.93;4.72;;;;;;;15.79;39.04;101559.94;10366011;28;20046;-76
2021/10/09 11:21:54;;;;;;;9.25;5.28;;;;;;;15.99;40.73;101562.03;10384402;28;20049;-77
2021/10/09 11:26:55;;;;;;;6.93;5.22;;;;;;;16.30;40.72;101551.34;10364247;28;20046;-76
2021/10/09 11:32:04;;;;;;;6.30;5.57;;;;;;;16.55;38.04;101543.44;10381375;28;20057;-77
2021/10/09 11:37:05;;;;;;;5.15;4.63;;;;;;;16.20;37.62;101547.22;10363918;28;20065;-75
2021/10/09 11:42:12;;;;;;;8.85;4.75;;;;;;;16.52;37.35;101547.09;10380552;28;20393;-75
2021/10/09 11:57:40;;;;;;;8.52;4.18;;;;;;;16.41;36.58;101530.63;10363771;28;20396;-76
2021/10/09 12:02:41;;;;;;;4.05;3.65;;;;;;;15.67;36.48;101531.13;10382122;28;20068;-76
2021/10/09 12:08:15;;;;;;;5.70;3.67;;;;;;;15.26;35.76;101526.06;10363348;28;20492;-75
2021/10/09 12:13:16;;;;;;;4.78;3.55;;;;;;;15.19;36.29;101523.63;10381621;28;20046;-77
2021/10/09 12:18:18;;;;;;;5.70;4.10;;;;;;;14.99;36.47;101527.66;10380476;28;20124;-75
2021/10/09 12:23:27;;;;;;;5.40;4.00;;;;;;;14.95;37.57;101520.72;10380616;28;20104;-75
2021/10/09 12:28:28;;;;;;;6.40;4.00;;;;;;;14.77;38.11;101515.91;10362948;28;20376;-75
2021/10/09 12:33:35;;;;;;;5.07;4.10;;;;;;;14.70;39.53;101509.91;10361857;28;20103;-75
2021/10/09 12:38:38;;;;;;;4.63;3.50;;;;;;;14.48;39.09;101520.16;10380400;28;20046;-76
2021/10/09 12:43:40;;;;;;;7.90;3.55;;;;;;;14.33;38.88;101505.47;10379447;28;20053;-76
2021/10/09 12:48:41;;;;;;;3.90;3.50;;;;;;;14.51;39.24;101509.47;10377943;28;20069;-75
2021/10/09 12:53:43;;;;;;;3.72;3.10;;;;;;;14.59;39.18;101502.22;10360188;28;20139;-75
2021/10/09 12:58:45;;;;;;;4.50;3.38;;;;;;;14.52;38.33;101502.41;10402441;28;20046;-75
2021/10/09 13:03:51;;;;;;;4.87;3.07;;;;;;;14.46;38.58;101490.16;10420699;28;20430;-75
2021/10/09 13:08:53;;;;;;;5.93;2.70;;;;;;;14.46;38.11;101487.53;10391076;28;20492;-75
2021/10/09 13:13:54;;;;;;;3.17;2.88;;;;;;;14.48;38.63;101484.84;10378548;28;20061;-76
2021/10/09 13:19:21;;;;;;;7.13;3.55;;;;;;;14.58;39.35;101484.59;10378406;28;20074;-76
2021/10/09 13:24:22;;;;;;;6.93;3.25;;;;;;;14.56;39.96;101480.25;10392864;28;20056;-76
2021/10/09 13:29:24;;;;;;;3.85;2.80;;;;;;;14.48;40.09;101471.63;10400553;28;20045;-74
2021/10/09 13:34:26;;;;;;;4.65;2.75;;;;;;;14.43;40.65;101470.84;10418503;28;20487;-76
2021/10/09 13:39:27;;;;;;;7.40;3.22;;;;;;;14.37;40.16;101466.59;10418775;28;20050;-75
2021/10/09 13:44:29;;;;;;;5.68;2.65;;;;;;;14.36;40.47;101463.06;10417724;28;20051;-75
2021/10/09 13:49:31;;;;;;;6.45;3.20;;;;;;;14.48;39.87;101464.59;10418668;28;20041;-74
2021/10/09 13:54:34;;;;;;;4.72;3.38;;;;;;;14.30;40.82;101463.25;10382382;28;20049;-75
2021/10/09 13:59:37;;;;;;;4.80;3.70;;;;;;;14.41;40.79;101467.38;10416632;28;20049;-74
2021/10/09 14:04:39;;;;;;;3.92;3.50;;;;;;;14.25;41.10;101454.53;10419347;28;20112;-75
2021/10/09 14:09:41;;;;;;;4.18;3.42;;;;;;;14.27;40.62;101457.16;10407556;28;20053;-75
2021/10/09 14:14:42;;;;;;;5.57;3.50;;;;;;;14.18;41.54;101460.03;10379274;28;20099;-76
2021/10/09 14:19:44;;;;;;;5.15;3.70;;;;;;;14.08;41.12;101462.88;10372250;28;20042;-75
2021/10/09 14:24:45;;;;;;;5.47;3.28;;;;;;;13.89;41.47;101462.41;10407156;28;20496;-75
2021/10/09 14:29:47;;;;;;;5.70;3.95;;;;;;;13.94;41.59;101464.94;10424049;28;20049;-75
2021/10/09 14:34:49;;;;;;;4.80;3.35;;;;;;;13.87;41.81;101463.38;10424099;28;20071;-75
2021/10/09 14:39:50;;;;;;;4.47;3.45;;;;;;;13.83;41.05;101465.22;10424007;28;20049;-74
2021/10/09 14:44:52;;;;;;;5.25;3.35;;;;;;;13.86;40.86;101472.22;10398844;28;20500;-75
2021/10/09 14:50:23;;;;;;;4.75;3.35;;;;;;;13.90;40.85;101468.59;10382083;28;20046;-75
2021/10/09 14:55:49;;;;;;;3.70;3.28;;;;;;;13.60;41.31;101471.00;10379079;28;20056;-75
2021/10/09 15:17:38;;;;;;;6.10;3.58;;;;;;;13.05;41.63;101479.13;10256102;28;20051;-75
2021/10/09 15:22:39;;;;;;;3.75;3.13;;;;;;;12.83;41.41;101489.19;10240332;29;20051;-75
2021/10/09 15:27:41;;;;;;;5.68;4.03;;;;;;;12.82;41.18;101487.47;10255004;28;20055;-74
2021/10/09 15:32:42;;;;;;;8.27;3.17;;;;;;;12.76;41.24;101490.22;10238913;29;20051;-74
2021/10/09 15:37:45;;;;;;;6.63;4.05;;;;;;;12.62;41.75;101488.69;10238814;29;20043;-73
2021/10/09 15:42:49;;;;;;;10.88;4.55;;;;;;;12.58;41.79;101481.72;10336854;28;20137;-74
2021/10/09 15:47:52;;;;;;;4.38;3.38;;;;;;;12.30;42.75;101483.94;10361691;28;20049;-74
2021/10/09 15:52:54;;;;;;;5.78;3.92;;;;;;;12.28;43.66;101493.63;10362047;28;20045;-73
2021/10/09 15:57:57;;;;;;;6.13;4.07;;;;;;;12.21;44.00;101496.38;10361670;28;20132;-72
2021/10/09 16:02:59;;;;;;;5.22;3.83;;;;;;;12.10;44.37;101491.28;10360678;28;20451;-72
2021/10/09 16:08:00;;;;;;;6.35;4.80;;;;;;;11.98;44.66;101497.59;10377655;28;20048;-72
2021/10/09 16:13:03;;;;;;;6.55;4.68;;;;;;;11.84;45.00;101497.78;10360524;28;20053;-73
2021/10/09 16:18:04;;;;;;;6.28;4.90;;;;;;;11.70;46.02;101501.47;10360030;28;20049;-72
2021/10/09 16:23:07;;;;;;;5.40;4.90;;;;;;;11.39;46.58;101493.97;10360452;28;20046;-74
2021/10/09 16:28:08;;;;;;;6.20;5.47;;;;;;;11.36;46.92;101501.88;10378812;28;20531;-72
2021/10/09 16:33:10;;;;;;;6.30;5.28;;;;;;;11.20;47.07;101508.19;10377840;28;20495;-74
2021/10/09 16:38:12;;;;;;;8.48;3.95;;;;;;;11.09;47.65;101506.56;10359528;28;20124;-73
2021/10/09 16:43:14;;;;;;;7.05;4.25;;;;;;;10.87;47.76;101505.03;10377003;28;20041;-73
2021/10/09 16:48:16;;;;;;;5.05;4.22;;;;;;;10.72;48.95;101510.44;10359418;28;20511;-72
2021/10/09 16:53:17;;;;;;;5.82;4.78;;;;;;;10.61;48.04;101507.88;10359919;28;20057;-72
2021/10/09 16:58:19;;;;;;;8.38;4.38;;;;;;;10.61;48.00;101506.13;10376403;28;20065;-73
2021/10/09 17:03:21;;;;;;;5.57;4.45;;;;;;;10.51;48.34;101515.00;10357837;28;20111;-73
2021/10/09 17:08:23;;;;;;;4.63;4.13;;;;;;;10.51;47.86;101512.34;10376737;28;20447;-72
2021/10/09 17:13:25;;;;;;;5.88;4.60;;;;;;;10.21;48.75;101520.44;10358728;28;20065;-73
2021/10/09 17:18:27;;;;;;;5.55;4.95;;;;;;;10.13;49.00;101517.84;10376324;28;20129;-73
2021/10/09 17:23:29;;;;;;;8.07;5.10;;;;;;;10.08;48.65;101517.00;10341948;28;20054;-73
2021/10/09 17:28:31;;;;;;;5.43;4.05;;;;;;;9.92;49.29;101526.75;10358593;28;20400;-74
2021/10/09 17:33:32;;;;;;;9.60;5.65;;;;;;;9.92;48.87;101520.63;10358245;28;20053;-72
2021/10/09 17:38:34;;;;;;;7.00;4.97;;;;;;;9.69;50.07;101528.59;10374569;28;20117;-73
2021/10/09 17:43:36;;;;;;;6.22;5.32;;;;;;;9.46;51.09;101532.16;10357738;28;20448;-74
2021/10/09 17:48:37;;;;;;;6.38;5.00;;;;;;;9.15;51.81;101530.50;10375107;28;20049;-73
2021/10/09 17:53:39;;;;;;;5.70;5.13;;;;;;;9.09;52.01;101524.41;10375431;28;20042;-73
2021/10/09 17:58:40;;;;;;;7.53;6.30;;;;;;;9.17;51.02;101527.03;10375468;28;20431;-73
2021/10/09 18:03:42;;;;;;;7.43;6.10;;;;;;;9.01;52.38;101526.16;10356990;28;20108;-72
2021/10/09 18:08:44;;;;;;;7.00;6.38;;;;;;;8.82;52.92;101533.19;10357107;28;20042;-73
2021/10/09 18:13:46;;;;;;;11.43;6.70;;;;;;;8.94;53.47;101527.06;10375338;28;20042;-73
2021/10/09 18:18:48;;;;;;;7.07;6.38;;;;;;;8.74;53.04;101518.31;10356945;28;20504;-74
2021/10/09 18:23:49;;;;;;;6.68;5.80;;;;;;;8.67;53.61;101525.31;10357350;28;20054;-73
2021/10/09 18:28:51;;;;;;;7.28;6.57;;;;;;;8.65;56.11;101523.56;10375353;28;20488;-73
2021/10/09 18:33:52;;;;;;;8.90;8.10;;;;;;;8.46;57.30;101525.31;10375098;28;20111;-73
2021/10/09 18:38:54;;;;;;;12.02;10.80;;;;;;;8.37;57.63;101525.28;10375397;28;20042;-73
2021/10/09 18:43:56;;;;;;;19.33;17.73;;;;;;;8.26;58.21;101525.25;10357165;28;20045;-73
2021/10/09 18:48:57;;;;;;;28.33;23.70;;;;;;;8.15;59.23;101527.88;10374132;28;20412;-73
2021/10/09 18:53:59;;;;;;;19.98;17.60;;;;;;;7.89;60.23;101530.41;10381865;28;20066;-73
2021/10/09 18:59:00;;;;;;;13.75;12.30;;;;;;;7.73;60.72;101525.97;10381801;28;20065;-73
2021/10/09 19:04:02;;;;;;;20.63;18.83;;;;;;;7.50;60.46;101525.91;10364104;28;20060;-74
2021/10/09 19:09:04;;;;;;;19.60;17.70;;;;;;;7.34;61.90;101519.69;10364600;28;20053;-73
2021/10/09 19:14:05;;;;;;;16.48;14.98;;;;;;;7.16;62.74;101520.47;10380314;28;20038;-74
2021/10/09 19:19:07;;;;;;;17.27;15.88;;;;;;;7.37;61.92;101530.19;10362491;28;20132;-73
2021/10/09 19:24:09;;;;;;;20.83;18.98;;;;;;;6.90;62.99;101524.66;10362685;28;20042;-72
2021/10/09 19:29:11;;;;;;;21.23;19.17;;;;;;;6.55;64.19;101514.81;10380051;28;20049;-73
2021/10/09 19:39:16;;;;;;;18.45;14.55;;;;;;;6.42;65.05;101526.00;10363085;28;20061;-73
2021/10/09 19:44:17;;;;;;;14.45;13.18;;;;;;;6.75;65.37;101528.03;10379527;28;20053;-73
2021/10/09 19:49:20;;;;;;;14.48;13.13;;;;;;;6.52;66.03;101525.25;10379352;28;20041;-73
2021/10/09 19:59:35;;;;;;;16.00;13.90;;;;;;;6.37;66.80;101530.31;10361809;28;20072;-74
2021/10/09 20:04:37;;;;;;;15.85;14.23;;;;;;;6.25;66.40;101531.09;10360469;28;20057;-74
2021/10/09 20:09:44;;;;;;;19.15;15.45;;;;;;;6.28;66.47;101536.31;10362173;28;20046;-72
2021/10/09 20:14:46;;;;;;;17.13;15.15;;;;;;;6.21;67.43;101531.94;10345916;28;20060;-74
2021/10/09 20:19:47;;;;;;;18.13;14.85;;;;;;;5.75;67.79;101529.63;10361601;28;20048;-73
2021/10/09 20:24:49;;;;;;;16.83;15.32;;;;;;;5.57;68.14;101532.88;10378520;28;20414;-73
2021/10/09 20:29:51;;;;;;;18.70;16.80;;;;;;;6.05;67.81;101542.19;10360569;28;20050;-72
2021/10/09 20:34:53;;;;;;;15.77;14.40;;;;;;;5.89;67.69;101539.34;10377781;28;20120;-73
2021/10/09 20:39:54;;;;;;;16.00;14.38;;;;;;;5.75;68.66;101547.91;10360059;28;20093;-73
2021/10/09 20:45:07;;;;;;;17.08;15.40;;;;;;;5.72;68.83;101550.50;10377228;28;20049;-74
2021/10/09 20:50:09;;;;;;;20.30;15.13;;;;;;;5.50;69.71;101551.94;10360975;28;20042;-72
2021/10/09 20:55:11;;;;;;;16.23;14.63;;;;;;;5.55;69.53;101547.66;10377386;28;20088;-73
2021/10/09 21:00:13;;;;;;;15.20;13.50;;;;;;;5.43;69.68;101557.91;10360060;28;20463;-72
2021/10/09 21:05:15;;;;;;;15.50;14.10;;;;;;;5.21;70.49;101548.06;10378034;28;20041;-73
2021/10/09 21:10:21;;;;;;;15.50;14.07;;;;;;;5.16;71.12;101547.13;10377420;28;20053;-72
2021/10/09 21:26:03;;;;;;;16.83;15.25;;;;;;;4.80;72.31;101537.88;10376785;28;20542;-73
2021/10/09 21:31:05;;;;;;;16.10;14.63;;;;;;;4.68;73.16;101530.75;10377012;28;20040;-72
2021/10/09 21:36:06;;;;;;;16.55;15.02;;;;;;;4.59;73.43;101522.78;10426294;22;20113;-71
2021/10/09 21:41:09;;;;;;;18.23;16.45;;;;;;;4.71;72.97;101522.09;10401657;28;20068;-70
2021/10/09 21:46:10;;;;;;;16.23;14.82;;;;;;;4.53;73.69;101523.56;10419338;28;20048;-70
2021/10/09 21:51:12;;;;;;;17.17;15.73;;;;;;;4.45;74.53;101527.75;10404224;28;20041;-71
2021/10/09 21:56:15;;;;;;;17.80;16.25;;;;;;;4.44;74.37;101522.53;10400155;28;20478;-71
2021/10/09 22:01:46;;;;;;;17.77;15.98;;;;;;;4.42;74.04;101519.00;10400367;28;20414;-71
2021/10/09 22:17:30;;;;;;;17.88;16.25;;;;;;;4.09;75.41;101516.69;10419567;28;20042;-72
2021/10/09 22:33:13;;;;;;;17.90;16.23;;;;;;;3.81;75.71;101518.78;10427090;28;20076;-72
2021/10/09 22:38:14;;;;;;;17.00;15.43;;;;;;;3.47;76.58;101515.50;10430828;28;20091;-73
2021/10/09 22:43:21;;;;;;;17.13;15.57;;;;;;;3.57;76.79;101513.97;10424616;28;20076;-72
2021/10/09 22:48:25;;;;;;;16.42;15.00;;;;;;;3.41;77.32;101519.69;10407965;28;20050;-73
2021/10/09 22:53:27;;;;;;;17.25;15.48;;;;;;;3.44;76.94;101514.56;10425358;28;20392;-74
2021/10/09 22:58:29;;;;;;;16.33;13.75;;;;;;;3.56;76.56;101513.94;10411711;28;20549;-73
2021/10/09 23:03:30;;;;;;;16.88;15.38;;;;;;;3.73;75.88;101505.63;10407589;28;20442;-73
2021/10/09 23:08:32;;;;;;;16.70;15.30;;;;;;;3.66;76.19;101503.75;10424627;28;20041;-72
2021/10/09 23:13:33;;;;;;;17.85;16.23;;;;;;;3.41;76.77;101507.59;10423738;28;20046;-72
2021/10/09 23:18:35;;;;;;;17.42;15.63;;;;;;;3.53;76.23;101505.22;10427858;28;20104;-71
2021/10/09 23:23:36;;;;;;;18.52;16.77;;;;;;;3.11;77.80;101500.00;10389404;28;20586;-72
2021/10/09 23:28:38;;;;;;;15.95;14.65;;;;;;;3.02;78.40;101495.47;10422915;28;20049;-72
2021/10/09 23:33:40;;;;;;;17.27;15.77;;;;;;;3.18;77.53;101490.59;10423715;28;20049;-73
2021/10/09 23:38:42;;;;;;;16.85;15.45;;;;;;;3.19;77.16;101493.25;10422748;28;20457;-72
2021/10/09 23:43:44;;;;;;;15.63;14.25;;;;;;;2.96;77.47;101479.72;10425956;28;20041;-72
2021/10/09 23:48:45;;;;;;;17.55;15.80;;;;;;;2.67;78.48;101486.00;10424053;28;20049;-73
2021/10/09 23:53:47;;;;;;;17.05;15.32;;;;;;;2.76;78.31;101478.44;10389166;28;20057;-73
2021/10/09 23:58:49;;;;;;;18.73;14.90;;;;;;;2.98;77.66;101482.38;10388428;28;20049;-72
